Time;durP1;ratioP1;P1;durP2;ratioP2;P2;SDS_P1;SDS_P2;PMS_P1;PMS_P2;Temp;Humidity;BMP_temperature;BMP_pressure;BME280_temperature;BME280_humidity;BME280_pressure;Samples;Min_cycle;Max_cycle;Signal;HPM_P1;HPM_P2
2021/05/05 00:01:29;;;;;;;4.78;2.72;;;;;;;16.53;100.00;100759.84;5040519;28;20361;-75
2021/05/05 00:04:15;;;;;;;5.78;2.83;;;;;;;16.55;100.00;100758.88;5054133;28;20083;-74
2021/05/05 00:07:01;;;;;;;4.97;2.65;;;;;;;16.50;100.00;100750.28;5056178;28;20124;-76
2021/05/05 00:09:47;;;;;;;5.40;2.60;;;;;;;16.65;100.00;100738.19;5040220;28;20025;-75
2021/05/05 00:12:33;;;;;;;3.85;2.65;;;;;;;16.76;100.00;100743.91;5054248;28;20082;-74
2021/05/05 00:15:21;;;;;;;5.53;2.70;;;;;;;16.52;100.00;100748.41;5055255;28;20039;-75
2021/05/05 00:18:07;;;;;;;7.18;2.40;;;;;;;16.66;100.00;100743.41;5055020;28;20025;-74
2021/05/05 00:20:54;;;;;;;2.60;2.15;;;;;;;16.61;100.00;100741.88;5040831;28;20040;-75
2021/05/05 00:23:39;;;;;;;4.80;2.40;;;;;;;16.44;100.00;100744.38;5055381;28;20120;-75
2021/05/05 00:26:26;;;;;;;3.53;2.22;;;;;;;16.77;100.00;100735.91;5054019;28;20036;-75
2021/05/05 00:29:11;;;;;;;4.60;2.40;;;;;;;16.61;100.00;100734.81;5055334;28;20355;-74
2021/05/05 00:31:57;;;;;;;2.75;2.45;;;;;;;16.30;100.00;100731.66;5055571;28;20037;-75
2021/05/05 00:34:43;;;;;;;4.65;2.67;;;;;;;16.36;100.00;100738.50;5039951;28;20032;-75
2021/05/05 00:37:29;;;;;;;3.45;2.05;;;;;;;16.30;100.00;100728.16;5055045;28;20033;-75
2021/05/05 00:40:15;;;;;;;2.65;2.22;;;;;;;16.26;100.00;100734.50;5055100;28;20055;-75
2021/05/05 00:43:01;;;;;;;4.82;2.35;;;;;;;16.18;100.00;100726.88;5054866;28;20034;-75
2021/05/05 00:45:47;;;;;;;3.38;2.30;;;;;;;16.31;100.00;100722.81;5039732;28;20039;-75
2021/05/05 00:48:32;;;;;;;6.55;2.42;;;;;;;16.07;100.00;100709.75;5041071;28;20095;-75
2021/05/05 00:51:18;;;;;;;3.33;2.40;;;;;;;16.41;100.00;100708.34;5054775;28;20083;-75
2021/05/05 00:54:05;;;;;;;3.25;2.40;;;;;;;16.41;100.00;100705.69;5055149;28;20029;-75
2021/05/05 00:56:51;;;;;;;3.08;2.33;;;;;;;16.48;100.00;100708.94;5055021;28;20025;-75
2021/05/05 00:59:37;;;;;;;3.92;2.38;;;;;;;16.37;100.00;100705.84;5041516;28;20037;-75
2021/05/05 01:02:23;;;;;;;3.42;2.00;;;;;;;16.41;100.00;100710.13;5056071;28;20025;-75
2021/05/05 01:05:09;;;;;;;3.10;2.20;;;;;;;16.34;100.00;100708.59;5055214;28;20094;-76
2021/05/05 01:07:55;;;;;;;3.30;2.15;;;;;;;16.53;100.00;100702.53;5040972;28;20035;-75
2021/05/05 01:10:43;;;;;;;4.53;2.00;;;;;;;16.72;100.00;100697.31;5054605;28;20041;-75
2021/05/05 01:13:29;;;;;;;3.83;2.20;;;;;;;16.49;100.00;100689.50;5060345;28;20147;-75
2021/05/05 01:16:15;;;;;;;3.22;2.10;;;;;;;16.71;100.00;100687.66;5058319;28;20068;-75
2021/05/05 01:19:01;;;;;;;3.30;1.95;;;;;;;16.88;100.00;100691.28;5057366;28;20365;-75
2021/05/05 01:21:47;;;;;;;2.75;2.03;;;;;;;16.84;100.00;100686.22;5058004;28;20036;-74
2021/05/05 01:24:34;;;;;;;2.42;1.88;;;;;;;16.53;100.00;100684.03;5058606;28;20025;-74
2021/05/05 01:27:20;;;;;;;3.45;2.20;;;;;;;16.79;100.00;100685.53;5043690;28;20182;-75
2021/05/05 01:30:09;;;;;;;3.85;2.10;;;;;;;16.56;100.00;100677.75;5057489;28;20036;-76
2021/05/05 01:32:55;;;;;;;4.65;2.47;;;;;;;16.81;100.00;100689.00;5043576;28;20029;-75
2021/05/05 01:35:43;;;;;;;3.03;2.10;;;;;;;16.52;100.00;100678.78;5057904;28;20044;-75
2021/05/05 01:38:29;;;;;;;2.55;2.10;;;;;;;16.60;100.00;100674.88;5057789;28;20107;-75
2021/05/05 01:41:17;;;;;;;4.47;2.10;;;;;;;16.27;100.00;100667.50;5057043;28;20384;-75
2021/05/05 01:44:04;;;;;;;5.85;2.22;;;;;;;16.58;100.00;100673.22;5057242;28;20116;-73
2021/05/05 01:46:49;;;;;;;4.65;1.90;;;;;;;16.52;100.00;100670.88;5057821;28;20059;-74
2021/05/05 01:49:42;;;;;;;4.28;2.05;;;;;;;16.72;100.00;100660.28;5057389;28;20416;-74
2021/05/05 01:52:28;;;;;;;2.92;2.08;;;;;;;16.78;100.00;100652.06;5057387;28;20119;-75
2021/05/05 01:55:13;;;;;;;4.40;2.08;;;;;;;16.62;100.00;100654.53;5058231;28;20036;-75
2021/05/05 01:57:59;;;;;;;3.55;2.30;;;;;;;16.46;100.00;100658.75;5042201;28;20041;-75
2021/05/05 02:00:45;;;;;;;4.90;2.10;;;;;;;16.52;100.00;100662.94;5058303;28;20064;-75
2021/05/05 02:03:31;;;;;;;3.28;2.10;;;;;;;16.71;100.00;100666.47;5057240;28;20115;-75
2021/05/05 02:06:17;;;;;;;2.40;1.80;;;;;;;17.04;100.00;100649.16;5057324;28;20043;-74
2021/05/05 02:09:04;;;;;;;2.35;2.00;;;;;;;17.09;100.00;100642.72;5056226;28;20393;-74
2021/05/05 02:11:49;;;;;;;3.72;1.83;;;;;;;16.88;100.00;100638.34;5057180;28;20123;-75
2021/05/05 02:14:35;;;;;;;2.45;1.90;;;;;;;16.63;100.00;100639.53;5056722;28;20024;-74
2021/05/05 02:17:21;;;;;;;2.05;1.75;;;;;;;16.77;100.00;100631.84;5042439;28;20029;-74
2021/05/05 02:20:09;;;;;;;3.00;2.00;;;;;;;16.87;100.00;100631.34;5057005;28;20067;-74
2021/05/05 02:22:55;;;;;;;3.70;2.15;;;;;;;16.94;100.00;100622.22;5055676;28;20017;-75
2021/05/05 02:25:41;;;;;;;3.78;2.15;;;;;;;17.15;100.00;100607.13;5059040;28;20033;-74
2021/05/05 02:28:27;;;;;;;3.05;2.00;;;;;;;17.32;100.00;100609.88;5042199;28;20446;-74
2021/05/05 02:31:13;;;;;;;2.50;1.90;;;;;;;17.04;100.00;100604.16;5059714;28;20029;-74
2021/05/05 02:33:59;;;;;;;6.60;2.20;;;;;;;16.53;100.00;100614.38;5059234;28;20343;-74
2021/05/05 02:36:45;;;;;;;4.45;1.90;;;;;;;16.90;100.00;100593.31;5057748;28;20051;-75
2021/05/05 02:39:30;;;;;;;5.05;2.20;;;;;;;16.52;100.00;100594.16;5055885;28;20024;-74
2021/05/05 02:42:18;;;;;;;4.75;2.20;;;;;;;16.58;100.00;100592.09;5057616;28;20024;-74
2021/05/05 02:45:05;;;;;;;2.83;2.00;;;;;;;16.29;100.00;100597.75;5042468;28;20029;-74
2021/05/05 02:47:51;;;;;;;3.17;1.80;;;;;;;16.76;100.00;100593.91;5057916;28;20116;-74
2021/05/05 02:50:38;;;;;;;2.35;1.80;;;;;;;16.46;100.00;100600.56;5057256;28;20039;-74
2021/05/05 02:53:23;;;;;;;4.10;2.10;;;;;;;16.83;100.00;100607.72;5041185;28;20465;-74
2021/05/05 02:56:09;;;;;;;2.28;2.00;;;;;;;17.04;100.00;100609.44;5042063;28;20043;-74
2021/05/05 02:58:55;;;;;;;4.55;2.03;;;;;;;16.76;100.00;100614.25;5041466;28;20020;-74
2021/05/05 03:01:41;;;;;;;3.35;2.03;;;;;;;16.78;100.00;100620.31;5057180;28;20372;-74
2021/05/05 03:04:27;;;;;;;2.97;2.10;;;;;;;17.03;100.00;100629.75;5056243;28;20369;-74
2021/05/05 03:07:12;;;;;;;3.28;2.03;;;;;;;16.52;100.00;100625.91;5056118;28;20024;-74
2021/05/05 03:09:58;;;;;;;5.95;2.05;;;;;;;16.96;100.00;100622.16;5056125;28;20056;-74
2021/05/05 03:12:44;;;;;;;3.22;2.30;;;;;;;16.93;100.00;100630.22;5055158;28;20077;-74
2021/05/05 03:15:30;;;;;;;4.25;2.20;;;;;;;16.78;100.00;100623.84;5056230;28;20464;-74
2021/05/05 03:18:16;;;;;;;3.78;2.15;;;;;;;16.95;100.00;100620.41;5041807;28;20055;-74
2021/05/05 03:21:01;;;;;;;3.55;2.30;;;;;;;17.04;100.00;100628.81;5040177;28;20024;-74
2021/05/05 03:23:48;;;;;;;3.30;2.20;;;;;;;17.29;100.00;100631.22;5056242;28;20450;-73
2021/05/05 03:26:35;;;;;;;4.43;2.33;;;;;;;17.57;100.00;100624.56;5056224;28;20041;-74
2021/05/05 03:29:20;;;;;;;6.22;2.28;;;;;;;17.36;100.00;100620.25;5041574;28;20035;-74
2021/05/05 03:32:06;;;;;;;4.90;2.40;;;;;;;17.29;100.00;100626.78;5055958;28;20037;-73
2021/05/05 03:34:52;;;;;;;5.22;2.28;;;;;;;17.16;100.00;100633.53;5055210;28;20029;-73
2021/05/05 03:37:38;;;;;;;3.05;2.10;;;;;;;17.60;100.00;100637.69;5056017;28;20025;-74
2021/05/05 03:40:24;;;;;;;4.38;2.10;;;;;;;17.32;100.00;100636.38;5055598;28;20020;-74
2021/05/05 03:43:10;;;;;;;5.03;2.28;;;;;;;17.40;100.00;100635.09;5041028;28;20063;-75
2021/05/05 03:45:56;;;;;;;5.97;3.00;;;;;;;17.46;100.00;100636.59;5054390;28;20029;-73
2021/05/05 03:48:41;;;;;;;4.50;2.70;;;;;;;17.31;100.00;100630.19;5055616;28;20021;-73
2021/05/05 03:51:27;;;;;;;3.40;2.20;;;;;;;17.64;100.00;100625.16;5040081;28;20052;-74
2021/05/05 03:54:14;;;;;;;4.28;2.55;;;;;;;17.22;100.00;100625.34;5055148;28;20043;-75
2021/05/05 03:57:00;;;;;;;3.17;2.17;;;;;;;17.38;100.00;100625.47;5054436;28;20436;-74
2021/05/05 03:59:46;;;;;;;8.15;2.72;;;;;;;17.40;100.00;100629.81;5055644;28;20029;-75
2021/05/05 04:02:31;;;;;;;4.07;2.08;;;;;;;17.24;100.00;100634.06;5055539;28;20468;-75
2021/05/05 04:05:17;;;;;;;2.63;2.28;;;;;;;17.36;100.00;100640.59;5055157;28;20428;-74
2021/05/05 04:08:04;;;;;;;4.60;2.70;;;;;;;17.81;100.00;100649.06;5055706;28;20033;-74
2021/05/05 04:10:49;;;;;;;2.78;2.17;;;;;;;17.70;99.77;100652.22;5054326;28;20084;-75
2021/05/05 04:13:35;;;;;;;6.90;2.30;;;;;;;17.67;100.00;100652.34;5040774;28;20092;-75
2021/05/05 04:16:21;;;;;;;3.70;2.47;;;;;;;17.73;99.88;100644.09;5054414;28;20071;-75
2021/05/05 04:19:07;;;;;;;4.80;3.10;;;;;;;17.95;98.91;100650.09;5054384;28;20064;-74
2021/05/05 04:21:52;;;;;;;5.60;3.15;;;;;;;17.84;98.91;100646.28;5053714;28;20025;-74
2021/05/05 04:24:38;;;;;;;5.38;2.90;;;;;;;18.36;95.52;100653.38;5055379;28;20036;-73
2021/05/05 04:27:24;;;;;;;6.20;2.85;;;;;;;18.52;94.31;100655.19;5055050;28;20033;-73
2021/05/05 04:30:13;;;;;;;4.90;2.70;;;;;;;18.08;97.82;100645.03;5054212;28;20035;-74
2021/05/05 04:32:59;;;;;;;7.53;2.95;;;;;;;18.20;96.92;100637.34;5040592;28;20144;-75
2021/05/05 04:35:44;;;;;;;4.97;2.80;;;;;;;18.45;95.18;100635.22;5054834;28;20031;-74
2021/05/05 04:38:30;;;;;;;4.53;2.65;;;;;;;18.16;97.75;100634.91;5054017;28;20024;-74
2021/05/05 04:41:16;;;;;;;5.43;2.72;;;;;;;18.31;96.46;100642.13;5054090;28;20057;-74
2021/05/05 04:44:02;;;;;;;6.97;2.60;;;;;;;17.93;97.04;100637.88;5055269;28;20112;-75
2021/05/05 04:46:48;;;;;;;24.50;3.85;;;;;;;18.52;95.35;100644.59;5057620;28;20075;-75
2021/05/05 04:49:34;;;;;;;6.45;2.92;;;;;;;18.43;95.79;100641.53;5058796;28;20021;-75
2021/05/05 04:52:20;;;;;;;8.23;2.80;;;;;;;18.55;96.20;100649.75;5058269;28;20532;-75
2021/05/05 04:55:07;;;;;;;5.88;2.53;;;;;;;18.80;95.09;100646.66;5043697;28;20115;-74
2021/05/05 04:57:53;;;;;;;4.53;2.70;;;;;;;18.28;95.79;100653.75;5043837;28;20099;-75
2021/05/05 05:00:39;;;;;;;4.93;2.45;;;;;;;18.61;96.11;100656.53;5057861;28;20036;-74
2021/05/05 05:03:24;;;;;;;3.58;2.63;;;;;;;18.86;95.70;100657.81;5042928;28;20029;-74
2021/05/05 05:06:10;;;;;;;3.83;2.30;;;;;;;19.24;92.34;100653.16;5058230;28;20029;-74
2021/05/05 05:08:56;;;;;;;3.75;2.42;;;;;;;19.45;90.20;100656.47;5058567;28;20103;-74
2021/05/05 05:11:43;;;;;;;6.07;2.78;;;;;;;19.52;89.18;100657.88;5058505;28;20057;-74
2021/05/05 05:14:29;;;;;;;5.05;2.45;;;;;;;19.31;88.71;100656.34;5058583;28;20029;-74
2021/05/05 05:17:15;;;;;;;6.00;2.40;;;;;;;19.17;92.19;100663.22;5058893;28;20025;-74
2021/05/05 05:20:04;;;;;;;7.18;2.60;;;;;;;18.94;98.91;100671.56;5057529;28;20025;-75
2021/05/05 05:22:54;;;;;;;7.63;2.63;;;;;;;19.11;100.00;100678.63;5058214;28;20056;-76
2021/05/05 05:25:40;;;;;;;4.28;2.80;;;;;;;18.87;100.00;100677.28;5057662;28;20035;-75
2021/05/05 05:28:27;;;;;;;4.03;2.70;;;;;;;18.82;100.00;100669.53;5057768;28;20025;-74
2021/05/05 05:31:13;;;;;;;3.85;2.47;;;;;;;18.81;100.00;100673.13;5058648;28;20040;-75
2021/05/05 05:33:59;;;;;;;6.00;3.00;;;;;;;18.62;100.00;100679.47;5043375;28;20040;-75
2021/05/05 05:36:44;;;;;;;8.20;2.92;;;;;;;18.41;100.00;100685.88;5058270;28;20025;-75
2021/05/05 05:39:30;;;;;;;6.15;2.75;;;;;;;18.31;100.00;100690.75;5057831;28;20430;-75
2021/05/05 05:42:16;;;;;;;4.03;2.65;;;;;;;18.70;100.00;100696.72;5057327;28;20013;-74
2021/05/05 05:45:03;;;;;;;9.30;3.20;;;;;;;19.00;100.00;100696.94;5057595;28;20056;-75
2021/05/05 05:47:49;;;;;;;4.25;2.67;;;;;;;18.56;100.00;100704.53;5058167;28;20060;-74
2021/05/05 05:50:35;;;;;;;8.40;3.22;;;;;;;18.35;100.00;100702.94;5057650;28;20385;-74
2021/05/05 05:53:21;;;;;;;5.47;2.60;;;;;;;18.28;100.00;100700.63;5057521;28;20025;-74
2021/05/05 05:56:07;;;;;;;4.25;2.80;;;;;;;18.66;100.00;100703.09;5057095;28;20040;-74
2021/05/05 05:58:53;;;;;;;6.05;2.90;;;;;;;18.39;100.00;100719.56;5041948;28;20029;-75
2021/05/05 06:01:39;;;;;;;7.03;2.45;;;;;;;18.51;100.00;100711.00;5058228;28;20476;-75
2021/05/05 06:04:24;;;;;;;6.70;2.60;;;;;;;19.25;98.27;100707.16;5042125;28;20039;-75
2021/05/05 06:07:10;;;;;;;7.05;2.50;;;;;;;19.29;95.74;100703.41;5056656;28;20370;-75
2021/05/05 06:09:56;;;;;;;4.35;2.40;;;;;;;19.13;97.49;100711.31;5057147;28;20094;-75
2021/05/05 06:12:42;;;;;;;4.55;2.40;;;;;;;19.79;93.40;100706.81;5057312;28;20123;-75
2021/05/05 06:15:28;;;;;;;6.07;2.28;;;;;;;20.17;89.46;100716.22;5056095;28;20091;-74
2021/05/05 06:18:13;;;;;;;4.88;2.10;;;;;;;19.93;90.51;100707.78;5041576;28;20036;-76
2021/05/05 06:21:00;;;;;;;5.55;2.50;;;;;;;20.16;89.16;100709.16;5041466;28;20033;-75
2021/05/05 06:23:46;;;;;;;3.55;2.55;;;;;;;20.13;89.14;100715.53;5041628;28;20033;-75
2021/05/05 06:26:32;;;;;;;7.07;3.20;;;;;;;20.18;89.64;100710.81;5056380;28;20122;-75
2021/05/05 06:29:18;;;;;;;5.57;2.75;;;;;;;20.27;89.87;100710.28;5056037;28;20033;-74
2021/05/05 06:32:04;;;;;;;7.82;2.83;;;;;;;19.61;93.65;100698.06;5054949;28;20029;-74
2021/05/05 06:34:52;;;;;;;4.70;2.65;;;;;;;19.83;96.39;100695.94;5041335;28;20092;-75
2021/05/05 06:37:38;;;;;;;4.93;2.72;;;;;;;20.08;95.31;100693.63;5028548;28;20060;-76
2021/05/05 06:40:24;;;;;;;9.10;2.92;;;;;;;20.45;92.81;100690.59;5056627;28;20029;-75
2021/05/05 06:43:10;;;;;;;8.15;3.00;;;;;;;20.21;93.56;100697.31;5042930;28;20114;-75
2021/05/05 06:45:55;;;;;;;9.23;3.70;;;;;;;20.17;93.64;100694.94;5040995;28;20120;-75
2021/05/05 06:48:41;;;;;;;7.28;3.35;;;;;;;20.73;91.22;100695.16;5056085;28;20029;-75
2021/05/05 06:51:27;;;;;;;6.22;3.63;;;;;;;20.61;92.44;100686.09;5055379;28;20357;-75
2021/05/05 06:54:14;;;;;;;6.10;3.40;;;;;;;20.23;96.43;100689.25;5055180;28;20107;-75
2021/05/05 06:57:00;;;;;;;5.20;2.90;;;;;;;19.97;99.16;100693.34;5055762;28;20052;-75
2021/05/05 06:59:46;;;;;;;5.57;3.55;;;;;;;20.19;96.39;100703.69;5056293;28;20060;-75
2021/05/05 07:02:32;;;;;;;8.30;3.63;;;;;;;20.33;96.63;100699.28;5053924;28;20032;-75
2021/05/05 07:05:18;;;;;;;10.73;5.70;;;;;;;20.17;97.89;100700.28;5040773;28;20088;-75
2021/05/05 07:08:03;;;;;;;7.40;3.55;;;;;;;20.52;96.19;100702.59;5055349;28;20044;-77
2021/05/05 07:10:49;;;;;;;9.45;4.22;;;;;;;19.92;99.85;100702.53;5053816;28;20036;-76
2021/05/05 07:13:35;;;;;;;12.18;4.28;;;;;;;20.42;97.56;100708.56;5056160;28;20029;-77
2021/05/05 07:16:26;;;;;;;14.43;4.40;;;;;;;20.10;99.28;100698.88;5041668;28;20029;-76
2021/05/05 07:19:15;;;;;;;13.05;5.05;;;;;;;19.54;100.00;100702.00;5056109;28;20039;-76
2021/05/05 07:22:01;;;;;;;9.93;5.13;;;;;;;20.23;100.00;100705.22;5054696;28;20017;-74
2021/05/05 07:24:48;;;;;;;10.70;4.90;;;;;;;20.18;100.00;100696.66;5042407;28;20033;-75
2021/05/05 07:27:33;;;;;;;11.80;4.90;;;;;;;20.59;100.00;100701.31;5041971;28;20083;-74
2021/05/05 07:30:19;;;;;;;10.68;4.90;;;;;;;21.11;100.00;100697.28;5041932;28;20040;-75
2021/05/05 07:33:11;;;;;;;6.28;4.00;;;;;;;21.08;100.00;100700.13;5055178;28;20099;-75
2021/05/05 07:35:59;;;;;;;6.13;3.70;;;;;;;21.58;100.00;100691.66;5041358;28;20445;-75
2021/05/05 07:44:48;;;;;;;9.32;3.45;;;;;;;21.21;99.66;100695.75;5055831;28;20100;-75
2021/05/05 07:47:36;;;;;;;8.48;3.65;;;;;;;21.98;95.84;100701.53;5055612;28;20025;-75
2021/05/05 07:50:22;;;;;;;7.32;2.80;;;;;;;22.06;93.75;100693.91;5054209;28;20031;-74
2021/05/05 07:53:08;;;;;;;4.00;2.70;;;;;;;22.28;90.92;100694.19;5053741;28;20103;-76
2021/05/05 07:55:56;;;;;;;4.93;2.65;;;;;;;22.52;89.68;100690.81;5040673;28;20032;-74
2021/05/05 07:58:42;;;;;;;5.88;2.92;;;;;;;22.51;90.17;100698.91;5054528;28;20053;-75
2021/05/05 08:01:29;;;;;;;6.10;2.80;;;;;;;22.44;91.44;100694.91;5054503;28;20031;-75
2021/05/05 08:04:15;;;;;;;6.07;2.67;;;;;;;21.85;95.08;100693.47;5054925;28;20094;-75
2021/05/05 08:07:01;;;;;;;5.68;3.00;;;;;;;22.56;90.82;100708.34;5055710;28;20021;-76
2021/05/05 08:09:48;;;;;;;5.25;3.05;;;;;;;22.33;92.31;100703.63;5055641;28;20446;-75
2021/05/05 08:12:37;;;;;;;3.85;3.00;;;;;;;21.97;93.75;100706.00;5040223;28;20085;-75
2021/05/05 08:15:23;;;;;;;7.13;3.17;;;;;;;22.25;92.12;100705.06;5054729;28;20096;-75
2021/05/05 08:18:10;;;;;;;7.47;3.40;;;;;;;21.58;95.82;100711.16;5055642;28;20177;-75
2021/05/05 08:20:55;;;;;;;7.88;3.35;;;;;;;20.99;100.00;100708.69;5056094;28;20353;-75
2021/05/05 08:23:42;;;;;;;7.15;3.70;;;;;;;21.16;100.00;100703.19;5059254;28;20445;-75
2021/05/05 08:26:30;;;;;;;7.18;3.50;;;;;;;21.24;100.00;100708.91;5058539;28;20025;-75
2021/05/05 08:29:15;;;;;;;5.05;3.22;;;;;;;21.65;100.00;100706.31;5045006;28;20134;-74
2021/05/05 08:32:03;;;;;;;10.20;3.72;;;;;;;21.09;100.00;100708.97;5059055;28;20450;-75
2021/05/05 08:34:49;;;;;;;8.55;3.30;;;;;;;21.07;100.00;100702.88;5044000;28;20080;-75
2021/05/05 08:37:35;;;;;;;6.85;3.30;;;;;;;21.44;100.00;100707.66;5044439;28;20128;-75
2021/05/05 08:40:21;;;;;;;6.35;3.45;;;;;;;21.64;100.00;100705.47;5044370;28;20028;-74
2021/05/05 08:43:07;;;;;;;8.88;3.83;;;;;;;20.88;100.00;100705.75;5043444;28;20385;-75
2021/05/05 08:45:59;;;;;;;6.45;3.10;;;;;;;21.20;100.00;100709.16;5058129;28;20025;-75
2021/05/05 08:48:45;;;;;;;5.35;3.20;;;;;;;21.00;100.00;100709.50;5059071;28;20024;-75
2021/05/05 08:51:31;;;;;;;10.30;3.85;;;;;;;21.16;100.00;100710.31;5058695;28;20025;-76
2021/05/05 08:54:17;;;;;;;6.70;3.80;;;;;;;20.70;100.00;100712.16;5058528;28;20369;-75
2021/05/05 08:57:04;;;;;;;6.60;4.03;;;;;;;20.63;100.00;100716.16;5042718;28;20021;-75
2021/05/05 08:59:49;;;;;;;8.52;4.57;;;;;;;20.44;100.00;100714.63;5044348;28;20039;-75
2021/05/05 09:02:35;;;;;;;11.45;4.88;;;;;;;20.50;100.00;100715.16;5057963;28;20027;-74
2021/05/05 09:05:25;;;;;;;6.20;4.35;;;;;;;20.47;100.00;100701.16;5059396;28;20454;-74
2021/05/05 09:08:11;;;;;;;7.85;4.55;;;;;;;20.53;100.00;100698.97;5060858;28;20029;-74
2021/05/05 09:11:17;;;;;;;8.27;4.78;;;;;;;20.32;100.00;100696.72;5058939;28;20130;-74
2021/05/05 09:14:03;;;;;;;6.70;4.90;;;;;;;20.67;100.00;100699.06;5060455;28;20025;-75
2021/05/05 09:16:48;;;;;;;7.28;4.82;;;;;;;20.92;100.00;100690.47;5059768;28;20448;-74
2021/05/05 09:19:34;;;;;;;6.32;4.97;;;;;;;21.20;100.00;100682.50;5060222;28;20024;-75
2021/05/05 09:22:36;;;;;;;9.15;4.70;;;;;;;21.24;100.00;100670.72;5058774;28;20024;-75
2021/05/05 09:25:25;;;;;;;16.42;6.15;;;;;;;21.68;100.00;100669.66;5060270;28;20036;-74
2021/05/05 09:28:14;;;;;;;38.10;7.30;;;;;;;22.03;100.00;100672.75;5060317;28;20025;-74
2021/05/05 09:31:10;;;;;;;14.18;6.00;;;;;;;21.94;100.00;100679.53;5059445;28;20025;-74
2021/05/05 09:33:57;;;;;;;7.47;5.30;;;;;;;21.91;100.00;100678.88;5057714;28;20060;-76
2021/05/05 09:37:06;;;;;;;9.73;5.40;;;;;;;21.97;100.00;100681.13;5057418;28;20025;-79
2021/05/05 09:40:09;;;;;;;6.90;4.80;;;;;;;21.94;100.00;100678.69;5044525;28;20024;-75
2021/05/05 09:42:55;;;;;;;9.00;5.38;;;;;;;22.09;100.00;100672.34;5042536;28;20067;-75
2021/05/05 09:45:41;;;;;;;13.52;5.47;;;;;;;22.35;100.00;100676.81;5057687;28;20032;-76
2021/05/05 09:48:27;;;;;;;7.28;5.43;;;;;;;22.26;100.00;100691.63;5042310;28;20032;-75
2021/05/05 09:51:13;;;;;;;8.70;5.20;;;;;;;22.14;100.00;100695.09;5043031;28;20086;-75
2021/05/05 09:53:58;;;;;;;7.95;5.28;;;;;;;22.41;100.00;100687.09;5042620;28;20454;-75
2021/05/05 09:56:44;;;;;;;14.23;5.88;;;;;;;22.17;100.00;100697.56;5041514;28;20120;-75
2021/05/05 09:59:30;;;;;;;7.75;4.35;;;;;;;22.44;100.00;100689.56;5043146;28;20025;-75
2021/05/05 10:02:16;;;;;;;6.32;4.38;;;;;;;21.97;100.00;100689.13;5055529;28;20032;-75
2021/05/05 10:05:23;;;;;;;6.82;4.20;;;;;;;21.30;100.00;100689.84;5056455;28;20342;-76
2021/05/05 10:08:09;;;;;;;8.30;4.40;;;;;;;21.22;100.00;100689.47;5056712;28;20047;-75
2021/05/05 10:10:55;;;;;;;7.22;4.50;;;;;;;21.72;100.00;100683.66;5036169;28;20038;-77
2021/05/05 10:13:41;;;;;;;6.85;4.78;;;;;;;22.04;100.00;100685.13;5022375;28;20029;-75
2021/05/05 10:16:28;;;;;;;6.75;4.38;;;;;;;21.10;100.00;100676.88;5036003;28;20468;-75
2021/05/05 10:19:27;;;;;;;9.55;4.80;;;;;;;21.56;100.00;100685.56;5036600;28;20034;-75
2021/05/05 10:22:13;;;;;;;6.72;4.57;;;;;;;21.76;100.00;100682.53;5035735;28;20465;-75
2021/05/05 10:25:00;;;;;;;8.98;4.80;;;;;;;21.08;100.00;100680.59;5037755;28;20041;-75
2021/05/05 10:27:46;;;;;;;8.93;5.25;;;;;;;20.95;100.00;100685.84;5036448;28;20451;-75
2021/05/05 10:30:34;;;;;;;7.85;5.10;;;;;;;20.88;100.00;100679.13;5036643;28;20040;-75
2021/05/05 10:33:26;;;;;;;7.05;5.40;;;;;;;20.60;100.00;100681.72;5035448;28;20474;-75
2021/05/05 10:36:35;;;;;;;10.68;5.32;;;;;;;20.77;100.00;100686.06;5034665;28;20040;-75
2021/05/05 10:39:21;;;;;;;10.65;5.20;;;;;;;21.21;100.00;100686.88;5020993;28;20025;-75
2021/05/05 10:42:19;;;;;;;6.90;5.32;;;;;;;20.98;100.00;100672.31;5035625;28;20025;-75
2021/05/05 10:45:06;;;;;;;7.38;5.25;;;;;;;20.34;100.00;100677.06;5034707;28;20021;-75
2021/05/05 10:48:28;;;;;;;7.72;5.68;;;;;;;20.77;100.00;100675.41;5036178;28;20056;-75
2021/05/05 10:51:14;;;;;;;8.07;5.80;;;;;;;21.17;100.00;100659.59;4941629;29;20045;-75
2021/05/05 10:54:00;;;;;;;7.55;6.00;;;;;;;21.36;100.00;100659.28;5036049;28;20032;-75
2021/05/05 10:57:08;;;;;;;9.80;6.55;;;;;;;21.51;100.00;100661.88;5035647;28;20025;-75
2021/05/05 10:59:57;;;;;;;7.78;6.22;;;;;;;21.27;100.00;100651.88;5036078;28;20022;-75
2021/05/05 11:02:44;;;;;;;8.43;6.28;;;;;;;21.33;100.00;100647.03;5021729;28;20100;-75
2021/05/05 11:05:30;;;;;;;7.47;6.25;;;;;;;21.57;100.00;100647.28;5034395;28;20029;-75
2021/05/05 11:08:27;;;;;;;6.90;5.20;;;;;;;20.42;100.00;100650.00;5035117;28;20081;-75
2021/05/05 11:11:33;;;;;;;8.45;5.50;;;;;;;20.41;100.00;100640.31;5043481;28;20040;-75
2021/05/05 11:14:39;;;;;;;6.80;5.90;;;;;;;20.93;100.00;100641.59;5056083;28;20187;-75
2021/05/05 11:17:28;;;;;;;6.78;5.78;;;;;;;20.50;100.00;100634.44;5039291;28;20060;-75
2021/05/05 11:20:40;;;;;;;7.07;5.93;;;;;;;20.89;100.00;100634.72;5040418;28;20036;-75
2021/05/05 11:23:35;;;;;;;7.53;5.75;;;;;;;20.98;100.00;100629.69;5055897;28;20091;-75
2021/05/05 11:26:26;;;;;;;8.98;6.00;;;;;;;21.58;100.00;100633.84;5041263;28;20410;-76
2021/05/05 11:29:29;;;;;;;8.85;5.97;;;;;;;21.73;100.00;100618.69;5056010;28;20021;-76
2021/05/05 11:32:18;;;;;;;13.77;6.72;;;;;;;21.63;100.00;100618.44;5054460;28;20032;-75
2021/05/05 11:35:24;;;;;;;8.57;6.72;;;;;;;21.80;100.00;100615.56;5054622;28;20025;-75
2021/05/05 11:38:19;;;;;;;9.20;6.72;;;;;;;21.96;100.00;100597.59;5054570;28;20036;-75
2021/05/05 11:41:05;;;;;;;10.40;6.22;;;;;;;21.37;100.00;100587.22;5055667;28;20036;-75
2021/05/05 11:43:50;;;;;;;12.02;6.05;;;;;;;21.23;100.00;100591.72;5040617;28;20028;-76
2021/05/05 11:46:36;;;;;;;9.80;6.28;;;;;;;22.03;100.00;100587.38;5054405;28;20090;-74
2021/05/05 11:49:33;;;;;;;12.25;6.32;;;;;;;21.95;100.00;100581.69;5055263;28;20143;-75
2021/05/05 11:52:26;;;;;;;11.05;5.97;;;;;;;22.44;100.00;100580.97;5055272;28;20120;-75
2021/05/05 11:55:13;;;;;;;13.80;6.43;;;;;;;22.54;100.00;100571.38;5055157;28;20029;-75
2021/05/05 11:58:00;;;;;;;9.85;6.32;;;;;;;22.55;100.00;100565.06;5040763;28;20029;-75
2021/05/05 12:00:46;;;;;;;11.15;6.57;;;;;;;23.07;100.00;100564.97;5055421;28;20021;-74
2021/05/05 12:03:31;;;;;;;10.98;5.88;;;;;;;22.91;100.00;100557.16;5055371;28;20106;-75
2021/05/05 12:06:17;;;;;;;10.88;6.13;;;;;;;23.33;100.00;100555.94;5054293;28;20024;-75
2021/05/05 12:09:19;;;;;;;10.68;6.35;;;;;;;23.92;100.00;100546.22;5040923;28;20120;-74
2021/05/05 12:12:28;;;;;;;11.90;7.13;;;;;;;23.23;100.00;100550.41;5055208;28;20385;-76
2021/05/05 12:15:13;;;;;;;9.63;6.65;;;;;;;23.78;100.00;100549.06;5055572;28;20036;-75
2021/05/05 12:18:04;;;;;;;10.13;5.85;;;;;;;23.94;100.00;100547.81;5040760;28;20128;-75
2021/05/05 12:20:50;;;;;;;11.57;6.00;;;;;;;23.38;100.00;100539.56;5054072;28;20032;-76
2021/05/05 12:23:37;;;;;;;7.63;5.93;;;;;;;24.36;100.00;100527.63;5054751;28;20386;-75
2021/05/05 12:26:25;;;;;;;10.05;5.78;;;;;;;22.85;100.00;100522.88;5054406;28;20037;-75
2021/05/05 12:29:15;;;;;;;13.82;6.22;;;;;;;22.90;100.00;100523.38;5040618;28;20032;-75
2021/05/05 12:32:03;;;;;;;9.68;5.75;;;;;;;23.41;100.00;100516.13;5055203;28;20033;-75
2021/05/05 12:34:56;;;;;;;9.07;5.60;;;;;;;23.52;100.00;100513.53;5040157;28;20053;-77
2021/05/05 12:37:41;;;;;;;8.65;5.80;;;;;;;24.04;100.00;100518.53;5055127;28;20419;-77
2021/05/05 12:40:27;;;;;;;14.23;5.80;;;;;;;24.49;97.75;100509.63;5054914;28;20021;-74
2021/05/05 12:43:33;;;;;;;10.93;5.70;;;;;;;25.07;91.90;100523.69;5055056;28;20032;-75
2021/05/05 12:46:29;;;;;;;12.60;5.50;;;;;;;24.34;96.98;100506.31;5055065;28;20108;-75
2021/05/05 12:49:16;;;;;;;11.35;5.10;;;;;;;24.12;99.66;100513.44;5041114;28;20040;-75
2021/05/05 12:52:25;;;;;;;10.88;5.30;;;;;;;24.30;98.81;100512.06;5039989;28;20465;-75
2021/05/05 12:55:28;;;;;;;8.35;4.93;;;;;;;24.38;97.91;100507.78;5041367;28;20369;-75
2021/05/05 12:58:16;;;;;;;9.07;5.28;;;;;;;23.83;100.00;100493.38;5040361;28;20017;-75
2021/05/05 13:01:10;;;;;;;11.57;5.32;;;;;;;23.77;100.00;100500.03;5053621;28;20025;-75